createdAt,value
2022-08-06T00:00:03.262Z,71.82
2022-08-06T00:02:25.713Z,71.67
2022-08-06T00:04:57.931Z,71.81
2022-08-06T00:07:25.760Z,72.48
2022-08-06T00:09:59.923Z,72.53
2022-08-06T00:12:35.221Z,72.39
2022-08-06T00:15:12.162Z,71.69
2022-08-06T00:17:41.043Z,72.01
2022-08-06T00:20:08.317Z,72.23
2022-08-06T00:22:37.275Z,71.85
2022-08-06T00:25:04.227Z,71.92
2022-08-06T00:27:38.942Z,71.97
2022-08-06T00:30:14.824Z,72.06
2022-08-06T00:32:46.484Z,72.44
2022-08-06T00:35:20.178Z,72.00
2022-08-06T00:37:57.372Z,72.47
2022-08-06T00:40:30.642Z,72.42
2022-08-06T00:43:06.432Z,72.55
2022-08-06T00:45:38.070Z,72.50
2022-08-06T00:48:17.240Z,71.42
2022-08-06T00:51:00.922Z,71.45
2022-08-06T00:53:34.039Z,71.36
2022-08-06T00:56:08.404Z,71.99
2022-08-06T00:58:40.563Z,71.31
2022-08-06T01:01:17.234Z,71.95
2022-08-06T01:03:51.634Z,72.09
2022-08-06T01:06:57.293Z,72.46
2022-08-06T01:09:10.201Z,73.59
2022-08-06T01:11:38.193Z,73.00
2022-08-06T01:14:06.015Z,72.87
2022-08-06T01:16:45.321Z,73.13
2022-08-06T01:19:29.517Z,73.40
2022-08-06T01:22:31.269Z,73.30
2022-08-06T01:25:04.264Z,73.44
2022-08-06T01:28:00.879Z,73.13
2022-08-06T01:30:38.727Z,72.98
2022-08-06T01:33:15.597Z,72.86
2022-08-06T01:35:54.915Z,72.81
2022-08-06T01:38:36.826Z,73.05
2022-08-06T01:41:14.123Z,73.62
2022-08-06T01:44:07.072Z,73.31
2022-08-06T01:46:32.594Z,73.21
2022-08-06T01:49:09.603Z,73.23
2022-08-06T01:52:14.023Z,73.02
2022-08-06T01:54:43.592Z,72.14
2022-08-06T01:57:14.519Z,71.96
2022-08-06T01:59:56.348Z,72.06
2022-08-06T02:02:28.648Z,72.67
2022-08-06T02:05:01.774Z,73.36
2022-08-06T02:08:36.806Z,73.62
2022-08-06T02:10:33.829Z,73.43
2022-08-06T02:13:03.767Z,74.22
2022-08-06T02:15:45.995Z,74.33
2022-08-06T02:18:35.227Z,74.10
2022-08-06T02:21:18.935Z,74.13
2022-08-06T02:23:55.342Z,73.88
2022-08-06T02:26:25.718Z,74.23
2022-08-06T02:29:00.939Z,73.88
2022-08-06T02:31:27.459Z,73.69
2022-08-06T02:34:02.554Z,73.56
2022-08-06T02:36:50.668Z,73.83
2022-08-06T02:39:29.840Z,74.24
2022-08-06T02:42:18.793Z,73.58
2022-08-06T02:45:09.723Z,73.43
2022-08-06T02:48:09.508Z,73.28
2022-08-06T02:50:43.694Z,73.73
2022-08-06T02:53:24.901Z,74.25
2022-08-06T02:56:07.428Z,73.97
2022-08-06T02:58:39.511Z,74.37
2022-08-06T03:01:22.174Z,73.74
2022-08-06T03:03:59.161Z,73.72
2022-08-06T03:06:30.614Z,73.58
2022-08-06T03:08:58.923Z,73.81
2022-08-06T03:11:27.087Z,73.72
2022-08-06T03:14:01.607Z,73.86
2022-08-06T03:16:36.269Z,73.61
2022-08-06T03:19:57.832Z,73.82
2022-08-06T03:21:55.730Z,73.38
2022-08-06T03:24:26.482Z,73.19
2022-08-06T03:26:57.311Z,74.00
2022-08-06T03:29:26.269Z,73.96
2022-08-06T03:31:58.482Z,73.26
2022-08-06T03:34:42.311Z,72.59
2022-08-06T03:37:10.133Z,73.05
2022-08-06T03:39:42.885Z,73.98
2022-08-06T03:42:13.937Z,74.18
2022-08-06T03:44:40.777Z,74.26
2022-08-06T03:47:31.086Z,74.46
2022-08-06T03:50:25.830Z,74.43
2022-08-06T03:53:20.453Z,74.73
2022-08-06T03:55:56.966Z,74.59
2022-08-06T03:58:28.529Z,75.04
2022-08-06T04:01:04.105Z,75.14
2022-08-06T04:03:39.458Z,75.12
2022-08-06T04:06:16.192Z,73.91
2022-08-06T04:08:47.474Z,74.13
2022-08-06T04:12:13.543Z,74.27
2022-08-06T04:14:06.962Z,74.31
2022-08-06T04:16:36.113Z,74.05
2022-08-06T04:19:09.268Z,74.22
2022-08-06T04:23:05.626Z,74.67
2022-08-06T04:24:30.030Z,75.52
2022-08-06T04:27:00.188Z,75.27
2022-08-06T04:29:51.101Z,74.52
2022-08-06T04:32:29.942Z,73.84
2022-08-06T04:36:05.143Z,74.02
2022-08-06T04:37:52.937Z,74.32
2022-08-06T04:40:35.027Z,74.42
2022-08-06T04:43:08.556Z,74.46
2022-08-06T04:46:18.300Z,74.24
2022-08-06T04:48:24.824Z,74.40
2022-08-06T04:50:54.529Z,74.83
2022-08-06T04:53:43.452Z,75.24
2022-08-06T04:56:09.469Z,74.94
2022-08-06T04:58:42.449Z,75.14
2022-08-06T05:01:11.277Z,74.66
2022-08-06T05:04:07.522Z,74.50
2022-08-06T05:06:32.915Z,74.82
2022-08-06T05:09:07.247Z,74.80
2022-08-06T05:12:22.996Z,75.08
2022-08-06T05:14:53.424Z,75.59
2022-08-06T05:17:29.631Z,75.42
2022-08-06T05:20:12.968Z,75.47
2022-08-06T05:23:01.313Z,75.92
2022-08-06T05:25:30.479Z,75.80
2022-08-06T05:28:11.336Z,76.30
2022-08-06T05:30:47.021Z,76.18
2022-08-06T05:33:30.517Z,76.18
2022-08-06T05:36:05.259Z,76.76
2022-08-06T05:38:37.247Z,77.39
2022-08-06T05:41:09.386Z,77.23
2022-08-06T05:43:59.633Z,77.51
2022-08-06T05:46:30.926Z,77.62
2022-08-06T05:49:31.317Z,77.74
2022-08-06T05:52:14.536Z,77.41
2022-08-06T05:55:03.952Z,77.70
2022-08-06T05:57:41.345Z,77.73
2022-08-06T06:00:31.575Z,77.81
2022-08-06T06:03:07.778Z,77.85
2022-08-06T06:06:06.911Z,77.79
2022-08-06T06:08:37.890Z,77.56
2022-08-06T06:11:10.029Z,77.01
2022-08-06T06:13:57.938Z,76.63
2022-08-06T06:16:29.829Z,76.42
2022-08-06T06:19:15.093Z,76.13
2022-08-06T06:22:03.838Z,75.88
2022-08-06T06:24:36.562Z,75.42
2022-08-06T06:27:23.399Z,74.97
2022-08-06T06:30:10.433Z,74.57
2022-08-06T06:33:01.686Z,75.74
2022-08-06T06:35:54.834Z,75.32
2022-08-06T06:38:24.733Z,74.80
2022-08-06T06:41:19.989Z,73.99
2022-08-06T06:43:57.335Z,74.19
2022-08-06T06:46:43.598Z,73.34
2022-08-06T06:49:59.567Z,72.77
2022-08-06T06:52:30.011Z,72.92
2022-08-06T06:55:19.413Z,73.21
2022-08-06T06:57:58.861Z,72.43
2022-08-06T07:00:44.788Z,72.29
2022-08-06T07:03:15.861Z,72.41
2022-08-06T07:06:05.055Z,71.75
2022-08-06T07:08:37.508Z,71.21
2022-08-06T07:11:10.227Z,70.47
2022-08-06T07:13:47.572Z,71.06
2022-08-06T07:16:34.765Z,70.48
2022-08-06T07:19:05.568Z,69.17
2022-08-06T07:21:33.102Z,67.94
2022-08-06T07:24:06.630Z,67.24
2022-08-06T07:26:50.686Z,65.58
2022-08-06T07:29:49.515Z,67.29
2022-08-06T07:32:11.193Z,67.16
2022-08-06T07:34:55.998Z,66.72
2022-08-06T07:37:38.342Z,65.76
2022-08-06T07:40:08.222Z,64.90
2022-08-06T07:42:37.473Z,64.38
2022-08-06T07:45:14.382Z,64.12
2022-08-06T07:47:55.214Z,62.13
2022-08-06T07:50:25.367Z,60.39
2022-08-06T07:52:55.743Z,59.82
2022-08-06T07:55:26.411Z,61.28
2022-08-06T07:58:00.440Z,60.03
2022-08-06T08:00:28.943Z,58.49
2022-08-06T08:03:43.499Z,58.34
2022-08-06T08:06:25.017Z,59.35
2022-08-06T08:08:58.177Z,58.45
2022-08-06T08:12:16.217Z,55.02
2022-08-06T08:14:15.623Z,56.25
2022-08-06T08:16:42.238Z,55.44
2022-08-06T08:19:35.028Z,54.14
2022-08-06T08:22:10.033Z,54.07
2022-08-06T08:24:38.311Z,54.44
2022-08-06T08:27:11.922Z,53.53
2022-08-06T08:29:51.487Z,52.48
2022-08-06T08:32:22.019Z,52.45
2022-08-06T08:34:52.859Z,50.84
2022-08-06T08:37:20.832Z,50.45
2022-08-06T08:39:47.735Z,50.19
2022-08-06T08:42:32.289Z,51.45
2022-08-06T08:45:02.194Z,51.47
2022-08-06T08:47:46.588Z,52.26
2022-08-06T08:50:20.384Z,51.96
2022-08-06T08:52:51.285Z,52.14
2022-08-06T08:57:02.275Z,48.59
2022-08-06T08:58:40.449Z,48.33
2022-08-06T09:01:00.852Z,47.42
2022-08-06T09:03:27.903Z,48.02
2022-08-06T09:05:56.871Z,49.32
2022-08-06T09:08:59.699Z,47.40
2022-08-06T09:12:03.253Z,46.10
2022-08-06T09:14:04.458Z,47.58
2022-08-06T09:16:36.290Z,49.10
2022-08-06T09:19:04.901Z,49.13
2022-08-06T09:21:36.981Z,49.72
2022-08-06T09:24:05.324Z,48.34
2022-08-06T09:26:53.663Z,45.68
2022-08-06T09:29:24.019Z,45.59
2022-08-06T09:32:01.712Z,46.40
2022-08-06T09:34:39.085Z,46.07
2022-08-06T09:37:08.644Z,41.99
2022-08-06T09:39:46.594Z,43.98
2022-08-06T09:42:49.267Z,41.94
2022-08-06T09:45:42.057Z,41.60
2022-08-06T09:48:17.356Z,42.34
2022-08-06T09:50:50.742Z,40.33
2022-08-06T09:53:21.075Z,40.04
2022-08-06T09:55:57.751Z,40.19
2022-08-06T09:58:37.321Z,43.85
2022-08-06T10:01:23.407Z,44.83
2022-08-06T10:04:05.341Z,45.54
2022-08-06T10:06:39.812Z,44.45
2022-08-06T10:09:41.812Z,46.30
2022-08-06T10:11:59.874Z,46.83
2022-08-06T10:14:26.343Z,46.87
2022-08-06T10:17:09.734Z,44.99
2022-08-06T10:19:37.646Z,41.86
2022-08-06T10:22:13.295Z,39.49
2022-08-06T10:24:49.715Z,39.78
2022-08-06T10:27:23.260Z,40.46
2022-08-06T10:29:52.387Z,40.19
2022-08-06T10:32:50.312Z,40.66
2022-08-06T10:35:18.797Z,38.64
2022-08-06T10:37:53.301Z,39.89
2022-08-06T10:40:30.134Z,39.96
2022-08-06T10:42:59.921Z,41.07
2022-08-06T10:45:48.728Z,42.21
2022-08-06T10:49:00.038Z,42.05
2022-08-06T10:51:05.352Z,43.19
2022-08-06T10:54:00.961Z,42.22
2022-08-06T10:56:21.694Z,41.04
2022-08-06T10:58:53.985Z,40.74
2022-08-06T11:01:43.900Z,41.51
2022-08-06T11:04:22.404Z,40.21
2022-08-06T11:07:07.674Z,42.28
2022-08-06T11:10:14.626Z,42.60
2022-08-06T11:12:57.400Z,40.61
2022-08-06T11:15:24.902Z,40.16
2022-08-06T11:18:07.660Z,41.88
2022-08-06T11:20:46.629Z,42.65
2022-08-06T11:23:52.869Z,41.02
2022-08-06T11:26:02.981Z,39.55
2022-08-06T11:28:34.416Z,39.24
2022-08-06T11:31:03.515Z,39.56
2022-08-06T11:33:39.009Z,39.85
2022-08-06T11:36:11.194Z,39.78
2022-08-06T11:38:48.736Z,39.35
2022-08-06T11:41:50.497Z,39.81
2022-08-06T11:44:17.170Z,40.04
2022-08-06T11:46:48.313Z,42.26
2022-08-06T11:49:57.510Z,41.51
2022-08-06T11:52:37.645Z,41.22
2022-08-06T11:55:12.799Z,39.71
2022-08-06T11:57:49.663Z,40.57
2022-08-06T12:00:23.528Z,38.54
2022-08-06T12:02:54.659Z,40.08
2022-08-06T12:05:23.450Z,37.58
2022-08-06T12:08:42.313Z,38.82
2022-08-06T12:11:36.220Z,40.08
2022-08-06T12:14:33.274Z,38.02
2022-08-06T12:16:53.546Z,39.17
2022-08-06T12:19:22.038Z,37.73
2022-08-06T12:21:57.196Z,38.33
2022-08-06T12:24:35.652Z,37.50
2022-08-06T12:27:13.676Z,36.84
2022-08-06T12:29:42.325Z,37.71
2022-08-06T12:32:26.828Z,35.67
2022-08-06T12:34:58.604Z,35.18
2022-08-06T12:37:48.093Z,35.42
2022-08-06T12:40:27.707Z,35.90
2022-08-06T12:43:14.505Z,36.71
2022-08-06T12:46:06.305Z,38.55
2022-08-06T12:48:31.337Z,39.50
2022-08-06T12:51:03.953Z,36.79
2022-08-06T12:53:40.180Z,38.49
2022-08-06T12:56:29.133Z,36.07
2022-08-06T12:58:58.828Z,37.96
2022-08-06T13:02:11.894Z,38.86
2022-08-06T13:04:17.082Z,38.93
2022-08-06T13:06:48.913Z,39.25
2022-08-06T13:09:17.890Z,40.27
2022-08-06T13:11:51.632Z,39.16
2022-08-06T13:14:19.568Z,39.62
2022-08-06T13:16:56.390Z,39.33
2022-08-06T13:19:33.240Z,39.33
2022-08-06T13:22:08.603Z,38.74
2022-08-06T13:24:35.961Z,38.21
2022-08-06T13:27:05.997Z,39.60
2022-08-06T13:30:31.069Z,37.10
2022-08-06T13:32:33.987Z,37.99
2022-08-06T13:35:17.255Z,37.48
2022-08-06T13:37:57.090Z,35.50
2022-08-06T13:40:46.303Z,35.21
2022-08-06T13:43:39.627Z,36.75
2022-08-06T13:46:16.670Z,37.66
2022-08-06T13:48:46.316Z,35.91
2022-08-06T13:51:27.079Z,35.28
2022-08-06T13:53:57.232Z,34.66
2022-08-06T13:56:28.188Z,35.49
2022-08-06T13:58:59.353Z,35.79
2022-08-06T14:01:34.934Z,35.51
2022-08-06T14:04:11.737Z,36.65
2022-08-06T14:06:42.999Z,35.69
2022-08-06T14:09:19.761Z,37.03
2022-08-06T14:11:51.458Z,37.59
2022-08-06T14:14:22.306Z,38.51
2022-08-06T14:16:49.385Z,39.36
2022-08-06T14:20:14.124Z,38.85
2022-08-06T14:22:04.111Z,39.10
2022-08-06T14:24:33.038Z,40.44
2022-08-06T14:27:15.526Z,38.22
2022-08-06T14:30:28.990Z,38.57
2022-08-06T14:32:31.330Z,38.67
2022-08-06T14:34:58.921Z,38.07
2022-08-06T14:37:32.829Z,39.60
2022-08-06T14:40:32.663Z,38.67
2022-08-06T14:43:18.259Z,39.81
2022-08-06T14:45:44.698Z,40.00
2022-08-06T14:48:11.230Z,39.66
2022-08-06T14:50:42.110Z,38.78
2022-08-06T14:53:16.209Z,39.63
2022-08-06T14:56:07.217Z,38.42
2022-08-06T14:58:30.827Z,39.08
2022-08-06T15:00:57.638Z,39.65
2022-08-06T15:03:27.690Z,37.98
2022-08-06T15:06:04.358Z,38.66
2022-08-06T15:08:34.388Z,38.37
2022-08-06T15:11:05.894Z,37.56
2022-08-06T15:13:40.757Z,37.45
2022-08-06T15:16:10.659Z,37.75
2022-08-06T15:19:08.680Z,37.66
2022-08-06T15:21:44.091Z,37.49
2022-08-06T15:24:18.242Z,38.49
2022-08-06T15:26:48.634Z,38.55
2022-08-06T15:29:16.846Z,38.83
2022-08-06T15:31:46.349Z,38.42
2022-08-06T15:34:20.484Z,38.66
2022-08-06T15:37:02.854Z,39.13
2022-08-06T15:39:51.625Z,40.20
2022-08-06T15:42:20.045Z,40.75
2022-08-06T15:44:46.958Z,39.90
2022-08-06T15:47:14.866Z,40.27
2022-08-06T15:50:00.920Z,39.44
2022-08-06T15:52:28.739Z,41.06
2022-08-06T15:55:00.926Z,39.91
2022-08-06T15:57:49.873Z,39.55
2022-08-06T16:00:17.853Z,38.52
2022-08-06T16:02:50.030Z,38.71
2022-08-06T16:05:32.372Z,39.25
2022-08-06T16:08:10.951Z,39.78
2022-08-06T16:10:57.703Z,38.79
2022-08-06T16:13:24.194Z,38.06
2022-08-06T16:15:53.248Z,37.83
2022-08-06T16:18:31.086Z,37.84
2022-08-06T16:21:03.483Z,38.34
2022-08-06T16:23:58.032Z,38.68
2022-08-06T16:26:30.377Z,39.99
2022-08-06T16:29:07.711Z,40.51
2022-08-06T16:31:37.721Z,39.50
2022-08-06T16:34:14.267Z,39.67
2022-08-06T16:36:42.631Z,40.40
2022-08-06T16:39:13.309Z,39.23
2022-08-06T16:41:59.278Z,40.08
2022-08-06T16:44:34.716Z,39.83
2022-08-06T16:47:06.495Z,39.56
2022-08-06T16:50:17.620Z,39.11
2022-08-06T16:52:42.186Z,40.06
2022-08-06T16:55:08.255Z,40.49
2022-08-06T16:57:37.299Z,41.41
2022-08-06T17:00:06.459Z,40.52
2022-08-06T17:02:42.105Z,40.78
2022-08-06T17:05:17.364Z,41.05
2022-08-06T17:07:53.862Z,41.06
2022-08-06T17:10:25.908Z,42.27
2022-08-06T17:15:40.985Z,42.30
2022-08-06T17:18:28.480Z,43.30
2022-08-06T17:20:55.665Z,43.33
2022-08-06T17:26:09.977Z,44.00
2022-08-06T17:28:56.454Z,44.33
2022-08-06T17:31:58.241Z,44.91
2022-08-06T17:34:15.335Z,45.51
2022-08-06T17:36:50.623Z,45.53
2022-08-06T17:39:18.082Z,46.67
2022-08-06T17:41:52.811Z,46.67
2022-08-06T17:44:19.831Z,46.08
2022-08-06T17:46:48.152Z,46.00
2022-08-06T17:49:17.898Z,46.22
2022-08-06T17:51:45.352Z,46.61
2022-08-06T17:54:44.698Z,46.90
2022-08-06T17:57:00.262Z,47.07
2022-08-06T17:59:29.808Z,47.71
2022-08-06T18:01:58.619Z,47.57
2022-08-06T18:04:30.646Z,47.62
2022-08-06T18:07:01.252Z,48.31
2022-08-06T18:10:09.027Z,48.73
2022-08-06T18:12:28.025Z,49.26
2022-08-06T18:14:55.269Z,48.19
2022-08-06T18:17:21.836Z,48.46
2022-08-06T18:19:48.754Z,48.74
2022-08-06T18:22:22.791Z,48.74
2022-08-06T18:24:53.316Z,48.96
2022-08-06T18:27:55.803Z,49.21
2022-08-06T18:30:29.835Z,49.43
2022-08-06T18:33:10.112Z,50.64
2022-08-06T18:35:57.281Z,50.23
2022-08-06T18:38:32.072Z,50.35
2022-08-06T18:41:06.228Z,50.44
2022-08-06T18:43:49.678Z,51.06
2022-08-06T18:46:56.910Z,51.05
2022-08-06T18:49:26.667Z,51.40
2022-08-06T18:51:59.869Z,51.75
2022-08-06T18:54:26.742Z,51.70
2022-08-06T18:56:55.485Z,52.26
2022-08-06T18:59:29.658Z,52.33
2022-08-06T19:01:58.227Z,52.65
2022-08-06T19:04:27.276Z,52.98
2022-08-06T19:06:57.123Z,52.85
2022-08-06T19:09:33.927Z,53.23
2022-08-06T19:12:03.791Z,53.80
2022-08-06T19:14:44.169Z,54.08
2022-08-06T19:17:17.523Z,54.08
2022-08-06T19:20:19.662Z,54.09
2022-08-06T19:22:37.893Z,54.65
2022-08-06T19:25:09.653Z,54.75
2022-08-06T19:28:31.436Z,54.96
2022-08-06T19:30:38.726Z,54.54
2022-08-06T19:33:16.244Z,54.90
2022-08-06T19:36:03.011Z,55.09
2022-08-06T19:38:33.515Z,54.87
2022-08-06T19:41:01.225Z,55.10
2022-08-06T19:44:27.685Z,55.21
2022-08-06T19:46:30.371Z,55.58
2022-08-06T19:49:03.267Z,56.03
2022-08-06T19:52:03.352Z,56.59
2022-08-06T19:54:25.971Z,56.93
2022-08-06T19:57:02.934Z,56.73
2022-08-06T20:00:53.667Z,56.90
2022-08-06T20:02:20.350Z,56.86
2022-08-06T20:04:53.269Z,57.08
2022-08-06T20:07:25.024Z,57.44
2022-08-06T20:10:00.379Z,57.65
2022-08-06T20:12:33.980Z,57.72
2022-08-06T20:15:09.637Z,57.54
2022-08-06T20:17:46.207Z,57.72
2022-08-06T20:20:28.749Z,58.25
2022-08-06T20:23:08.488Z,58.51
2022-08-06T20:26:08.660Z,58.63
2022-08-06T20:29:07.470Z,58.84
2022-08-06T20:31:21.098Z,59.12
2022-08-06T20:33:58.104Z,59.69
2022-08-06T20:36:28.587Z,59.38
2022-08-06T20:38:55.503Z,59.36
2022-08-06T20:41:59.129Z,59.27
2022-08-06T20:44:09.071Z,59.57
2022-08-06T20:47:01.729Z,59.66
2022-08-06T20:49:29.538Z,59.98
2022-08-06T20:52:17.409Z,60.32
2022-08-06T20:54:52.681Z,60.53
2022-08-06T20:57:27.720Z,60.43
2022-08-06T20:59:56.579Z,60.40
2022-08-06T21:02:25.571Z,60.78
2022-08-06T21:05:13.452Z,60.62
2022-08-06T21:07:57.647Z,60.81
2022-08-06T21:10:31.688Z,60.95
2022-08-06T21:13:06.577Z,60.99
2022-08-06T21:15:54.271Z,61.93
2022-08-06T21:18:24.687Z,61.96
2022-08-06T21:20:53.084Z,62.23
2022-08-06T21:23:26.160Z,62.36
2022-08-06T21:26:08.165Z,62.22
2022-08-06T21:28:38.164Z,63.06
2022-08-06T21:31:04.850Z,64.52
2022-08-06T21:33:42.544Z,65.63
2022-08-06T21:36:19.337Z,65.91
2022-08-06T21:38:46.094Z,66.79
2022-08-06T21:41:55.429Z,66.41
2022-08-06T21:44:27.400Z,66.40
2022-08-06T21:46:59.067Z,67.42
2022-08-06T21:49:59.505Z,67.95
2022-08-06T21:52:28.555Z,68.65
2022-08-06T21:55:11.296Z,68.70
2022-08-06T21:57:49.898Z,68.96
2022-08-06T22:00:39.761Z,68.73
2022-08-06T22:04:34.554Z,69.38
2022-08-06T22:06:21.190Z,69.65
2022-08-06T22:08:46.553Z,69.75
2022-08-06T22:12:39.151Z,69.82
2022-08-06T22:14:08.662Z,70.04
2022-08-06T22:16:38.462Z,70.37
2022-08-06T22:19:04.958Z,70.43
2022-08-06T22:21:48.332Z,70.68
2022-08-06T22:24:18.348Z,70.42
2022-08-06T22:26:44.830Z,70.44
2022-08-06T22:29:18.075Z,70.33
2022-08-06T22:31:57.429Z,70.09
2022-08-06T22:34:31.085Z,70.12
2022-08-06T22:37:04.081Z,70.54
2022-08-06T22:39:38.640Z,71.16
2022-08-06T22:42:08.073Z,71.14
2022-08-06T22:44:51.845Z,70.53
2022-08-06T22:47:23.183Z,70.50
2022-08-06T22:50:00.650Z,70.85
2022-08-06T22:52:58.683Z,71.19
2022-08-06T22:55:18.229Z,71.41
2022-08-06T22:59:02.388Z,71.76
2022-08-06T23:00:34.373Z,71.58
2022-08-06T23:03:01.688Z,71.62
2022-08-06T23:05:30.887Z,71.50
2022-08-06T23:07:59.830Z,71.63
2022-08-06T23:10:27.346Z,71.52
2022-08-06T23:12:56.937Z,72.04
2022-08-06T23:15:39.293Z,72.34
2022-08-06T23:18:09.831Z,72.68
2022-08-06T23:20:36.886Z,72.77
2022-08-06T23:23:08.965Z,72.76
2022-08-06T23:26:01.817Z,72.00
2022-08-06T23:28:28.359Z,71.93
2022-08-06T23:30:55.992Z,72.08
2022-08-06T23:33:22.494Z,72.40
2022-08-06T23:35:50.716Z,72.44
2022-08-06T23:38:32.237Z,72.21
2022-08-06T23:41:00.326Z,72.42
2022-08-06T23:43:34.739Z,72.59
2022-08-06T23:46:03.481Z,72.49
2022-08-06T23:48:30.713Z,72.93
2022-08-06T23:50:58.798Z,73.40
2022-08-06T23:54:08.732Z,73.31
2022-08-06T23:56:15.580Z,72.88
2022-08-06T23:58:47.025Z,72.63
